Time;durP1;ratioP1;P1;durP2;ratioP2;P2;SDS_P1;SDS_P2;PMS_P1;PMS_P2;Temp;Humidity;BMP_temperature;BMP_pressure;BME280_temperature;BME280_humidity;BME280_pressure;Samples;Min_cycle;Max_cycle;Signal;HPM_P1;HPM_P2
2021/12/06 06:00:42;;;;;;;15.40;13.90;;;6.90;97.20;;;;;;1723076;28;20173;-79
2021/12/06 06:01:33;;;;;;;15.60;14.10;;;6.90;97.20;;;;;;1722963;28;20201;-80
2021/12/06 06:02:25;;;;;;;14.07;12.87;;;6.90;97.20;;;;;;1723191;28;20261;-80
2021/12/06 06:03:16;;;;;;;14.52;13.02;;;6.90;97.20;;;;;;1722953;28;20468;-79
2021/12/06 06:04:08;;;;;;;15.82;14.43;;;6.90;97.20;;;;;;1722585;28;20204;-80
2021/12/06 06:04:59;;;;;;;16.88;15.13;;;6.90;97.20;;;;;;1722837;28;20209;-80
2021/12/06 06:05:52;;;;;;;16.77;15.37;;;6.90;97.20;;;;;;1722891;28;20201;-79
2021/12/06 06:06:42;;;;;;;15.25;13.85;;;6.90;97.20;;;;;;1723150;28;20486;-79
2021/12/06 06:07:34;;;;;;;16.03;14.67;;;6.90;97.20;;;;;;1723280;28;20553;-79
2021/12/06 06:08:25;;;;;;;16.52;14.93;;;6.90;97.20;;;;;;1722823;28;20463;-79
2021/12/06 06:09:17;;;;;;;16.63;15.15;;;6.90;97.20;;;;;;1723045;28;20206;-79
2021/12/06 06:10:08;;;;;;;16.38;14.73;;;6.90;97.20;;;;;;1723573;28;20212;-79
2021/12/06 06:11:00;;;;;;;16.50;15.00;;;6.90;97.20;;;;;;1723363;28;20284;-79
2021/12/06 06:11:51;;;;;;;16.88;14.90;;;6.90;97.20;;;;;;1723413;28;20212;-80
2021/12/06 06:12:43;;;;;;;16.00;14.60;;;6.80;97.20;;;;;;1722404;28;20223;-79
2021/12/06 06:13:34;;;;;;;15.82;14.32;;;6.80;97.20;;;;;;1721988;28;20228;-79
2021/12/06 06:14:26;;;;;;;16.20;14.80;;;6.80;97.20;;;;;;1722239;28;20225;-80
2021/12/06 06:15:17;;;;;;;16.90;15.30;;;6.80;97.20;;;;;;1722741;28;20216;-79
2021/12/06 06:16:10;;;;;;;14.80;13.47;;;6.80;97.20;;;;;;1723051;28;20202;-78
2021/12/06 06:17:08;;;;;;;16.13;14.57;;;6.80;97.20;;;;;;1722250;28;20448;-78
2021/12/06 06:18:03;;;;;;;16.73;15.18;;;6.80;97.20;;;;;;1722512;28;20205;-78
2021/12/06 06:18:54;;;;;;;18.30;15.60;;;6.80;97.20;;;;;;1722075;28;20209;-77
2021/12/06 06:19:51;;;;;;;17.13;15.40;;;6.80;97.20;;;;;;1722506;28;20207;-78
2021/12/06 06:20:46;;;;;;;15.48;14.00;;;6.80;97.20;;;;;;1722484;28;20209;-80
2021/12/06 06:21:37;;;;;;;17.20;15.70;;;6.80;97.20;;;;;;1719307;28;20194;-80
2021/12/06 06:22:28;;;;;;;16.23;14.65;;;6.80;97.20;;;;;;1716258;28;20661;-79
2021/12/06 06:23:20;;;;;;;17.87;16.17;;;6.80;97.20;;;;;;1716012;28;20581;-78
2021/12/06 06:24:11;;;;;;;16.98;15.48;;;6.90;97.20;;;;;;1715578;28;20213;-79
2021/12/06 06:25:02;;;;;;;16.20;14.70;;;6.90;97.20;;;;;;1716787;28;20258;-79
2021/12/06 06:25:54;;;;;;;16.75;15.25;;;6.90;97.20;;;;;;1716314;28;20224;-79
2021/12/06 06:26:46;;;;;;;16.35;14.95;;;6.80;97.20;;;;;;1721376;28;20196;-80
2021/12/06 06:27:37;;;;;;;16.58;14.98;;;6.80;97.20;;;;;;1716901;28;20208;-80
2021/12/06 06:28:28;;;;;;;16.67;14.90;;;6.80;97.20;;;;;;1719671;28;20257;-80
2021/12/06 06:29:19;;;;;;;17.73;16.02;;;6.80;97.20;;;;;;1723583;28;20205;-79
2021/12/06 06:30:12;;;;;;;17.87;16.27;;;6.80;97.20;;;;;;1723269;28;20269;-79
2021/12/06 06:31:03;;;;;;;17.15;15.55;;;6.80;97.20;;;;;;1723418;28;20205;-79
2021/12/06 06:31:57;;;;;;;16.50;14.90;;;6.80;97.20;;;;;;1723105;28;20205;-79
2021/12/06 06:32:47;;;;;;;16.65;14.18;;;6.80;97.20;;;;;;1722931;28;20288;-79
2021/12/06 06:33:39;;;;;;;16.27;14.87;;;6.80;97.20;;;;;;1722507;28;20201;-79
2021/12/06 06:34:30;;;;;;;17.80;16.10;;;6.80;97.20;;;;;;1722869;28;20205;-79
2021/12/06 06:35:22;;;;;;;16.60;15.03;;;6.90;97.20;;;;;;1722911;28;20224;-79
2021/12/06 06:36:13;;;;;;;14.82;13.38;;;6.90;97.20;;;;;;1722715;28;20205;-79
2021/12/06 06:37:05;;;;;;;17.00;15.40;;;6.90;97.20;;;;;;1723052;28;20600;-79
2021/12/06 06:37:55;;;;;;;16.17;14.68;;;6.90;97.20;;;;;;1721554;28;20233;-78
2021/12/06 06:38:47;;;;;;;14.57;13.33;;;6.90;97.20;;;;;;1719889;28;20193;-78
2021/12/06 06:39:38;;;;;;;16.00;14.50;;;6.90;97.20;;;;;;1720385;28;20205;-78
2021/12/06 06:40:30;;;;;;;15.90;14.60;;;6.90;97.20;;;;;;1719812;28;20208;-77
2021/12/06 06:41:21;;;;;;;16.60;15.10;;;6.90;97.20;;;;;;1720111;28;20228;-77
2021/12/06 06:42:13;;;;;;;15.30;13.90;;;6.90;97.20;;;;;;1720440;28;20200;-77
2021/12/06 06:43:04;;;;;;;16.25;14.73;;;6.90;97.20;;;;;;1720823;28;20260;-78
2021/12/06 06:43:55;;;;;;;15.80;14.40;;;6.90;97.20;;;;;;1720289;28;20207;-77
2021/12/06 06:44:46;;;;;;;16.45;14.77;;;6.90;97.20;;;;;;1720006;28;20819;-77
2021/12/06 06:45:38;;;;;;;15.93;14.43;;;6.90;97.20;;;;;;1720756;28;20201;-78
2021/12/06 06:46:29;;;;;;;15.75;14.15;;;6.90;97.20;;;;;;1720827;28;20201;-78
2021/12/06 06:47:23;;;;;;;16.43;14.93;;;6.90;97.20;;;;;;1720839;28;20201;-78
2021/12/06 06:48:15;;;;;;;15.98;14.43;;;6.90;97.20;;;;;;1721079;28;20915;-78
2021/12/06 06:49:06;;;;;;;16.75;15.25;;;6.90;97.20;;;;;;1720747;28;20673;-77
2021/12/06 06:49:57;;;;;;;17.75;15.82;;;6.90;97.20;;;;;;1722065;28;20201;-79
2021/12/06 06:50:49;;;;;;;16.93;15.43;;;6.90;97.20;;;;;;1719580;28;20205;-79
2021/12/06 06:51:40;;;;;;;17.40;15.70;;;6.90;97.20;;;;;;1722855;28;20487;-79
2021/12/06 06:52:32;;;;;;;16.63;14.93;;;6.90;97.20;;;;;;1719565;28;20193;-79
2021/12/06 06:53:23;;;;;;;16.35;14.75;;;6.90;97.20;;;;;;1723992;28;20276;-78
2021/12/06 06:54:16;;;;;;;17.20;15.63;;;6.90;97.20;;;;;;1724631;28;20197;-79
2021/12/06 06:55:09;;;;;;;17.83;16.23;;;6.90;97.20;;;;;;1724744;28;20451;-79
2021/12/06 06:56:01;;;;;;;16.38;14.98;;;7.00;97.20;;;;;;1724628;28;20197;-79
2021/12/06 06:56:52;;;;;;;16.88;15.40;;;7.00;97.20;;;;;;1724542;28;20255;-79
2021/12/06 06:57:45;;;;;;;16.73;15.23;;;7.00;97.20;;;;;;1724792;28;20269;-80
2021/12/06 06:58:36;;;;;;;17.02;15.43;;;7.00;97.20;;;;;;1724922;28;20216;-79
2021/12/06 06:59:27;;;;;;;16.10;14.70;;;7.00;97.20;;;;;;1724562;28;20284;-80
2021/12/06 07:00:22;;;;;;;16.60;15.02;;;7.00;97.20;;;;;;1724680;28;20209;-80
2021/12/06 07:01:13;;;;;;;16.15;14.70;;;6.90;97.20;;;;;;1724628;28;20209;-79
2021/12/06 07:02:04;;;;;;;16.73;15.32;;;6.90;97.20;;;;;;1724411;28;20201;-79
2021/12/06 07:02:58;;;;;;;17.90;16.30;;;6.90;97.20;;;;;;1724649;28;20284;-79
2021/12/06 07:03:53;;;;;;;16.50;15.10;;;6.90;97.20;;;;;;1724259;28;20455;-79
2021/12/06 07:04:45;;;;;;;17.98;16.25;;;6.90;97.20;;;;;;1724386;28;20201;-80
2021/12/06 07:05:37;;;;;;;16.92;15.38;;;6.90;97.20;;;;;;1724247;28;20230;-79
2021/12/06 07:06:30;;;;;;;17.45;15.80;;;7.00;97.20;;;;;;1724411;28;20260;-79
2021/12/06 07:07:20;;;;;;;16.75;15.15;;;6.90;97.20;;;;;;1724758;28;20212;-79
2021/12/06 07:08:13;;;;;;;16.57;15.17;;;6.90;97.20;;;;;;1724442;28;20276;-80
2021/12/06 07:09:06;;;;;;;17.63;15.52;;;6.90;97.20;;;;;;1724104;28;20452;-79
2021/12/06 07:09:57;;;;;;;17.60;16.00;;;6.90;97.20;;;;;;1724321;28;20189;-80
2021/12/06 07:10:50;;;;;;;17.70;16.00;;;6.90;97.20;;;;;;1724335;28;20205;-79
2021/12/06 07:11:45;;;;;;;16.70;15.20;;;6.90;97.20;;;;;;1724472;28;20225;-79
2021/12/06 07:12:43;;;;;;;16.42;14.98;;;7.00;97.20;;;;;;1724442;28;20217;-79
2021/12/06 07:13:38;;;;;;;17.02;15.38;;;7.00;97.20;;;;;;1723694;28;20209;-79
2021/12/06 07:14:29;;;;;;;15.52;14.15;;;7.00;97.20;;;;;;1724576;28;20209;-79
2021/12/06 07:15:22;;;;;;;17.70;15.90;;;7.00;97.20;;;;;;1724569;28;20248;-79
2021/12/06 07:16:15;;;;;;;17.95;16.35;;;6.90;97.20;;;;;;1724544;28;20205;-79
2021/12/06 07:17:07;;;;;;;16.95;15.23;;;6.90;97.20;;;;;;1724183;28;20225;-79
2021/12/06 07:18:01;;;;;;;17.30;15.70;;;6.90;97.20;;;;;;1724353;28;20205;-79
2021/12/06 07:18:53;;;;;;;16.95;15.35;;;6.90;97.20;;;;;;1723878;28;20209;-79
2021/12/06 07:19:44;;;;;;;17.00;15.50;;;6.90;97.20;;;;;;1724403;28;20228;-79
2021/12/06 07:20:36;;;;;;;17.17;15.50;;;7.00;97.20;;;;;;1724728;28;20268;-79
2021/12/06 07:21:26;;;;;;;17.38;15.77;;;7.00;97.20;;;;;;1724222;28;20452;-79
2021/12/06 07:22:18;;;;;;;17.60;15.73;;;6.90;97.20;;;;;;1724460;28;20193;-79
2021/12/06 07:23:09;;;;;;;16.33;14.88;;;6.90;97.20;;;;;;1724250;28;20225;-80
2021/12/06 07:24:02;;;;;;;17.30;15.80;;;7.00;97.20;;;;;;1724154;28;20204;-79
2021/12/06 07:24:53;;;;;;;17.63;16.00;;;6.90;97.20;;;;;;1723958;28;20201;-79
2021/12/06 07:25:45;;;;;;;17.67;15.93;;;6.90;97.20;;;;;;1724147;28;20272;-79
2021/12/06 07:26:37;;;;;;;17.95;16.27;;;6.90;97.20;;;;;;1723584;28;20582;-80
2021/12/06 07:27:28;;;;;;;17.70;16.00;;;7.00;97.20;;;;;;1723909;28;20216;-79
2021/12/06 07:28:19;;;;;;;18.53;16.73;;;7.00;97.20;;;;;;1724143;28;20189;-79
2021/12/06 07:29:10;;;;;;;16.80;15.10;;;7.00;97.20;;;;;;1724129;28;20502;-79
2021/12/06 07:30:03;;;;;;;17.13;15.63;;;7.00;97.20;;;;;;1724464;28;20216;-79
2021/12/06 07:30:54;;;;;;;18.02;16.33;;;7.00;97.20;;;;;;1724615;28;20197;-79
2021/12/06 07:31:45;;;;;;;16.53;14.93;;;7.00;97.20;;;;;;1724050;28;20208;-79
2021/12/06 07:32:36;;;;;;;17.73;16.02;;;7.00;97.20;;;;;;1724223;28;20219;-79
2021/12/06 07:33:29;;;;;;;18.07;16.37;;;7.00;97.20;;;;;;1723834;28;20225;-79
2021/12/06 07:34:20;;;;;;;17.95;16.27;;;7.00;97.20;;;;;;1724198;28;20208;-79
2021/12/06 07:35:13;;;;;;;20.60;17.43;;;7.00;97.20;;;;;;1724272;28;20200;-79
2021/12/06 07:36:04;;;;;;;17.95;16.25;;;7.00;97.20;;;;;;1724104;28;20452;-80
2021/12/06 07:36:56;;;;;;;17.65;16.08;;;7.00;97.20;;;;;;1724018;28;20228;-79
2021/12/06 07:37:47;;;;;;;16.80;15.13;;;7.00;97.20;;;;;;1724064;28;20566;-79
2021/12/06 07:38:41;;;;;;;17.43;15.77;;;7.00;97.20;;;;;;1724013;28;20304;-80
2021/12/06 07:39:32;;;;;;;16.67;15.07;;;7.00;97.20;;;;;;1724075;28;20201;-79
2021/12/06 07:40:24;;;;;;;17.58;15.88;;;7.00;97.20;;;;;;1723891;28;20197;-78
2021/12/06 07:41:17;;;;;;;17.02;15.43;;;7.00;97.20;;;;;;1723653;28;20201;-79
2021/12/06 07:42:11;;;;;;;17.60;16.00;;;7.00;97.20;;;;;;1723900;28;20256;-79
2021/12/06 07:43:02;;;;;;;17.08;15.52;;;7.00;97.20;;;;;;1723540;28;20260;-79
2021/12/06 07:43:54;;;;;;;17.65;16.05;;;7.00;97.20;;;;;;1723598;28;20228;-79
2021/12/06 07:44:45;;;;;;;17.70;16.00;;;7.00;97.20;;;;;;1724076;28;20229;-79
2021/12/06 07:45:37;;;;;;;17.73;16.10;;;7.00;97.20;;;;;;1724251;28;20203;-80
2021/12/06 07:46:27;;;;;;;16.98;15.38;;;7.00;97.20;;;;;;1724162;28;20479;-80
2021/12/06 07:47:20;;;;;;;17.90;16.23;;;7.00;97.20;;;;;;1724096;28;20204;-80
2021/12/06 07:48:11;;;;;;;16.98;15.48;;;7.00;97.20;;;;;;1724366;28;20676;-80
2021/12/06 07:49:04;;;;;;;18.73;16.93;;;7.00;97.20;;;;;;1724365;28;20609;-79
2021/12/06 07:49:55;;;;;;;17.65;15.88;;;7.00;97.20;;;;;;1723993;28;20448;-80
2021/12/06 07:50:47;;;;;;;18.50;16.73;;;7.00;97.20;;;;;;1724102;28;20228;-79
2021/12/06 07:51:38;;;;;;;20.30;18.20;;;7.00;97.20;;;;;;1724154;28;20452;-80
2021/12/06 07:52:30;;;;;;;18.80;16.93;;;7.00;97.20;;;;;;1724293;28;20205;-80
2021/12/06 07:53:21;;;;;;;18.13;16.42;;;7.00;97.20;;;;;;1723700;28;20595;-80
2021/12/06 07:54:13;;;;;;;18.88;17.02;;;7.10;97.20;;;;;;1723628;28;20212;-79
2021/12/06 07:55:07;;;;;;;18.58;16.80;;;7.10;97.20;;;;;;1723993;28;20590;-79
2021/12/06 07:55:58;;;;;;;18.42;16.63;;;7.10;97.20;;;;;;1724037;28;20209;-80
2021/12/06 07:56:50;;;;;;;18.30;16.57;;;7.10;97.20;;;;;;1723555;28;20205;-80
2021/12/06 07:57:41;;;;;;;17.35;15.55;;;7.10;97.20;;;;;;1724279;28;20477;-79
2021/12/06 07:58:33;;;;;;;18.75;16.92;;;7.10;97.20;;;;;;1723968;28;20208;-80
2021/12/06 07:59:24;;;;;;;18.52;16.80;;;7.10;97.20;;;;;;1724054;28;20638;-79
2021/12/06 08:00:20;;;;;;;19.27;17.37;;;7.10;97.20;;;;;;1723372;28;20197;-79
2021/12/06 08:01:12;;;;;;;18.63;16.88;;;7.10;97.20;;;;;;1717243;28;20236;-80
2021/12/06 08:02:04;;;;;;;18.70;17.00;;;7.10;97.20;;;;;;1717213;28;20975;-80
2021/12/06 08:02:57;;;;;;;17.88;16.13;;;7.10;97.20;;;;;;1717301;28;20202;-80
2021/12/06 08:03:48;;;;;;;19.08;17.17;;;7.10;97.20;;;;;;1717139;28;20210;-79
2021/12/06 08:04:41;;;;;;;18.63;16.83;;;7.10;97.20;;;;;;1717126;28;20229;-79
2021/12/06 08:05:33;;;;;;;19.30;17.40;;;7.20;97.20;;;;;;1717243;28;20221;-79
2021/12/06 08:06:24;;;;;;;18.05;16.35;;;7.20;97.20;;;;;;1717227;28;20210;-79
2021/12/06 08:07:15;;;;;;;20.40;18.50;;;7.20;97.20;;;;;;1717361;28;20198;-79
2021/12/06 08:08:11;;;;;;;18.23;16.57;;;7.20;97.20;;;;;;1717439;28;20205;-79
2021/12/06 08:09:02;;;;;;;19.00;17.10;;;7.20;97.20;;;;;;1717351;28;20210;-80
2021/12/06 08:09:53;;;;;;;18.00;16.27;;;7.20;97.20;;;;;;1717357;28;20222;-78
2021/12/06 08:10:47;;;;;;;18.77;16.87;;;7.10;97.20;;;;;;1717146;28;20209;-79
2021/12/06 08:11:38;;;;;;;17.98;16.27;;;7.10;97.20;;;;;;1723264;28;20227;-79
2021/12/06 08:12:30;;;;;;;19.27;17.37;;;7.10;97.20;;;;;;1723973;28;20208;-80
2021/12/06 08:13:22;;;;;;;18.90;17.00;;;7.10;97.20;;;;;;1723935;28;20244;-80
2021/12/06 08:14:14;;;;;;;17.90;16.08;;;7.10;97.20;;;;;;1723871;28;20252;-80
2021/12/06 08:15:07;;;;;;;17.58;16.00;;;7.10;97.20;;;;;;1724161;28;20205;-79
2021/12/06 08:16:02;;;;;;;18.13;16.33;;;7.10;97.20;;;;;;1723671;28;20197;-79
2021/12/06 08:16:52;;;;;;;17.70;15.90;;;7.10;97.20;;;;;;1723658;28;20209;-80
2021/12/06 08:17:44;;;;;;;17.13;15.50;;;7.10;97.20;;;;;;1724049;28;20201;-79
2021/12/06 08:18:36;;;;;;;17.20;15.50;;;7.10;97.20;;;;;;1723836;28;20208;-79
2021/12/06 08:19:27;;;;;;;17.15;15.50;;;7.10;97.20;;;;;;1723808;28;20242;-79
2021/12/06 08:20:20;;;;;;;17.53;15.90;;;7.10;97.20;;;;;;1723832;28;20284;-78
2021/12/06 08:21:13;;;;;;;17.38;15.77;;;7.10;97.20;;;;;;1723149;28;20211;-79
2021/12/06 08:22:05;;;;;;;16.55;14.88;;;7.10;97.20;;;;;;1722458;28;20200;-79
2021/12/06 08:22:55;;;;;;;17.75;16.05;;;7.10;97.20;;;;;;1723833;28;20248;-79
2021/12/06 08:23:48;;;;;;;16.77;15.17;;;7.10;97.20;;;;;;1723554;28;20202;-79
2021/12/06 08:24:39;;;;;;;15.88;14.38;;;7.00;97.20;;;;;;1723599;28;20279;-79
2021/12/06 08:25:31;;;;;;;15.97;14.47;;;7.00;97.20;;;;;;1723807;28;20300;-79
2021/12/06 08:26:26;;;;;;;15.13;13.70;;;7.10;97.20;;;;;;1723916;28;20654;-79
2021/12/06 08:27:18;;;;;;;16.67;15.02;;;7.10;97.20;;;;;;1723946;28;20193;-80
2021/12/06 08:28:09;;;;;;;15.40;13.93;;;7.10;97.20;;;;;;1723782;28;20256;-79
2021/12/06 08:29:05;;;;;;;15.73;14.33;;;7.10;97.20;;;;;;1723955;28;20205;-80
2021/12/06 08:29:55;;;;;;;17.10;15.50;;;7.10;97.20;;;;;;1724007;28;20544;-80
2021/12/06 08:30:48;;;;;;;15.77;14.37;;;7.10;97.20;;;;;;1723644;28;20254;-79
2021/12/06 08:31:41;;;;;;;16.27;14.77;;;7.10;97.20;;;;;;1723845;28;20205;-80
2021/12/06 08:32:33;;;;;;;15.57;14.07;;;7.20;97.20;;;;;;1724044;28;20200;-79
2021/12/06 08:33:27;;;;;;;16.80;15.30;;;7.10;97.20;;;;;;1723429;28;20732;-79
2021/12/06 08:34:19;;;;;;;15.75;14.25;;;7.20;97.20;;;;;;1722963;28;20245;-79
2021/12/06 08:35:10;;;;;;;15.70;14.20;;;7.20;97.20;;;;;;1723127;28;20201;-79
2021/12/06 08:36:05;;;;;;;15.88;14.38;;;7.20;97.20;;;;;;1720185;28;20204;-79
2021/12/06 08:36:56;;;;;;;15.15;13.65;;;7.20;97.20;;;;;;1714976;28;20260;-80
2021/12/06 08:37:48;;;;;;;16.10;14.50;;;7.20;97.20;;;;;;1716711;28;20220;-79
2021/12/06 08:38:41;;;;;;;16.15;14.65;;;7.20;97.20;;;;;;1716706;28;20590;-80
2021/12/06 08:39:32;;;;;;;16.50;13.88;;;7.20;97.20;;;;;;1716260;28;20669;-80
2021/12/06 08:40:25;;;;;;;15.13;13.47;;;7.30;97.20;;;;;;1717978;28;20628;-80
2021/12/06 08:41:18;;;;;;;16.10;14.38;;;7.30;97.20;;;;;;1722662;28;20602;-80
2021/12/06 08:42:10;;;;;;;14.55;13.15;;;7.30;97.20;;;;;;1721980;28;20202;-80
2021/12/06 08:43:02;;;;;;;16.20;14.65;;;7.30;97.20;;;;;;1723263;28;20197;-80
2021/12/06 08:43:55;;;;;;;15.25;13.73;;;7.30;97.20;;;;;;1723160;28;20251;-80
2021/12/06 08:44:47;;;;;;;15.77;14.18;;;7.30;97.20;;;;;;1723311;28;20208;-80
2021/12/06 08:45:38;;;;;;;15.27;13.80;;;7.40;97.20;;;;;;1716520;28;20205;-80
2021/12/06 08:46:32;;;;;;;14.97;13.47;;;7.40;97.20;;;;;;1716838;28;20241;-80
2021/12/06 08:47:24;;;;;;;16.15;14.65;;;7.40;97.20;;;;;;1716748;28;20238;-80
2021/12/06 08:48:16;;;;;;;14.98;13.48;;;7.50;97.20;;;;;;1716526;28;20229;-80
2021/12/06 08:49:09;;;;;;;14.85;13.25;;;7.50;97.20;;;;;;1716838;28;20210;-80
2021/12/06 08:50:00;;;;;;;15.68;14.23;;;7.50;97.20;;;;;;1717015;28;20210;-80
2021/12/06 08:50:53;;;;;;;15.53;13.90;;;7.50;97.20;;;;;;1722335;28;20203;-80
2021/12/06 08:51:48;;;;;;;14.55;13.15;;;7.50;97.20;;;;;;1723447;28;20672;-79
2021/12/06 08:52:39;;;;;;;15.27;13.85;;;7.50;97.20;;;;;;1723692;28;20205;-79
2021/12/06 08:53:31;;;;;;;15.07;13.67;;;7.50;97.20;;;;;;1722620;28;20225;-80
2021/12/06 08:54:26;;;;;;;15.27;13.85;;;7.50;97.20;;;;;;1723266;28;20480;-80
2021/12/06 08:55:19;;;;;;;15.38;13.82;;;7.50;97.20;;;;;;1723596;28;20208;-79
2021/12/06 08:56:12;;;;;;;15.75;14.27;;;7.50;97.20;;;;;;1723447;28;20212;-79
2021/12/06 08:57:05;;;;;;;16.92;15.23;;;7.40;97.20;;;;;;1729707;28;20208;-80
2021/12/06 08:57:56;;;;;;;16.17;14.65;;;7.40;97.20;;;;;;1729448;28;20201;-80
2021/12/06 08:58:48;;;;;;;16.27;14.70;;;7.40;97.20;;;;;;1730704;28;20200;-80
2021/12/06 08:59:40;;;;;;;14.85;13.40;;;7.40;97.20;;;;;;1729646;28;20215;-80
2021/12/06 09:00:34;;;;;;;14.90;13.50;;;7.40;97.20;;;;;;1730277;28;20730;-80
2021/12/06 09:01:26;;;;;;;16.42;13.50;;;7.40;97.20;;;;;;1730015;28;20215;-80
2021/12/06 09:02:19;;;;;;;14.30;12.90;;;7.40;97.20;;;;;;1730060;28;20203;-80
2021/12/06 09:03:10;;;;;;;13.55;12.25;;;7.40;97.20;;;;;;1730084;28;20691;-80
2021/12/06 09:04:03;;;;;;;15.13;13.73;;;7.40;97.20;;;;;;1729839;28;20624;-79
2021/12/06 09:04:53;;;;;;;14.88;13.30;;;7.40;97.20;;;;;;1729597;28;20443;-80
2021/12/06 09:05:49;;;;;;;14.63;13.30;;;7.40;97.20;;;;;;1730033;28;20207;-80
2021/12/06 09:06:42;;;;;;;13.75;12.45;;;7.30;97.20;;;;;;1727435;28;20209;-79
2021/12/06 09:07:36;;;;;;;14.50;13.10;;;7.30;97.20;;;;;;1722267;28;20197;-80
2021/12/06 09:08:27;;;;;;;14.23;12.70;;;7.30;97.20;;;;;;1723289;28;20205;-79
2021/12/06 09:09:21;;;;;;;15.13;13.52;;;7.30;97.20;;;;;;1723279;28;20228;-79
2021/12/06 09:10:12;;;;;;;13.90;12.68;;;7.30;97.20;;;;;;1723433;28;20201;-80
2021/12/06 09:11:05;;;;;;;14.23;12.82;;;7.30;97.20;;;;;;1723565;28;20205;-80
2021/12/06 09:11:57;;;;;;;14.70;13.20;;;7.30;97.20;;;;;;1723192;28;20236;-79
2021/12/06 09:12:49;;;;;;;14.60;13.10;;;7.30;97.20;;;;;;1723046;28;20209;-80
2021/12/06 09:13:42;;;;;;;13.82;12.52;;;7.30;97.20;;;;;;1723220;28;20578;-80
2021/12/06 09:14:33;;;;;;;13.38;11.40;;;7.30;97.20;;;;;;1723420;28;20201;-80
2021/12/06 09:15:24;;;;;;;13.80;12.45;;;7.30;97.20;;;;;;1723196;28;20216;-80
2021/12/06 09:16:16;;;;;;;13.07;11.87;;;7.30;97.20;;;;;;1722740;28;20313;-80
2021/12/06 09:17:07;;;;;;;13.02;11.73;;;7.40;97.20;;;;;;1723323;28;20448;-80
2021/12/06 09:17:59;;;;;;;13.47;12.17;;;7.40;97.20;;;;;;1723411;28;20253;-80
2021/12/06 09:18:50;;;;;;;12.60;11.50;;;7.40;97.20;;;;;;1723295;28;20212;-79
2021/12/06 09:19:42;;;;;;;13.00;11.80;;;7.40;97.20;;;;;;1723519;28;20201;-79
2021/12/06 09:20:35;;;;;;;14.27;12.88;;;7.40;97.20;;;;;;1723831;28;20216;-80
2021/12/06 09:21:27;;;;;;;13.00;11.70;;;7.50;97.20;;;;;;1723304;28;20240;-79
2021/12/06 09:22:19;;;;;;;14.38;12.80;;;7.50;97.20;;;;;;1723222;28;20212;-79
2021/12/06 09:23:13;;;;;;;13.00;11.80;;;7.50;97.20;;;;;;1723399;28;20276;-80
2021/12/06 09:24:05;;;;;;;13.90;12.50;;;7.50;97.20;;;;;;1723092;28;20201;-80
2021/12/06 09:24:57;;;;;;;13.65;12.25;;;7.50;97.20;;;;;;1723632;28;20221;-80
2021/12/06 09:25:48;;;;;;;14.30;12.90;;;7.60;97.20;;;;;;1723396;28;20205;-80
2021/12/06 09:26:40;;;;;;;14.53;13.03;;;7.60;97.20;;;;;;1723981;28;20201;-80
2021/12/06 09:27:32;;;;;;;15.23;13.73;;;7.50;97.20;;;;;;1723400;28;20818;-80
2021/12/06 09:28:25;;;;;;;14.73;12.90;;;7.50;97.20;;;;;;1723169;28;20206;-79
2021/12/06 09:29:18;;;;;;;15.07;13.57;;;7.50;97.20;;;;;;1723579;28;20205;-79
2021/12/06 09:30:12;;;;;;;15.77;14.18;;;7.60;97.20;;;;;;1723269;28;20212;-80
2021/12/06 09:31:06;;;;;;;14.30;12.90;;;7.60;97.20;;;;;;1723242;28;20268;-80
2021/12/06 09:31:59;;;;;;;15.70;14.18;;;7.60;97.20;;;;;;1723181;28;20220;-80
2021/12/06 09:32:52;;;;;;;15.15;13.65;;;7.60;97.20;;;;;;1723069;28;20272;-80
2021/12/06 09:33:43;;;;;;;15.32;13.82;;;7.60;97.20;;;;;;1723050;28;20579;-80
2021/12/06 09:34:36;;;;;;;14.73;13.30;;;7.60;97.20;;;;;;1723340;28;20197;-80
2021/12/06 09:35:29;;;;;;;15.02;13.43;;;7.60;97.20;;;;;;1723053;28;20638;-80
2021/12/06 09:36:22;;;;;;;15.27;13.40;;;7.60;97.20;;;;;;1723127;28;20235;-80
2021/12/06 09:37:13;;;;;;;14.80;13.30;;;7.60;97.20;;;;;;1723348;28;20224;-79
2021/12/06 09:38:07;;;;;;;14.98;13.35;;;7.60;97.20;;;;;;1723212;28;20232;-80
2021/12/06 09:38:59;;;;;;;15.15;13.60;;;7.60;97.20;;;;;;1723180;28;20213;-80
2021/12/06 09:39:51;;;;;;;14.43;13.02;;;7.60;97.20;;;;;;1723420;28;20208;-79
2021/12/06 09:40:46;;;;;;;14.88;13.45;;;7.60;97.20;;;;;;1723321;28;20703;-80
2021/12/06 09:41:37;;;;;;;14.85;13.25;;;7.60;97.20;;;;;;1723286;28;20205;-79
2021/12/06 09:42:33;;;;;;;15.73;13.23;;;7.60;97.20;;;;;;1722972;28;20197;-79
2021/12/06 09:43:25;;;;;;;14.93;13.43;;;7.60;97.20;;;;;;1722874;28;20473;-78
2021/12/06 09:44:16;;;;;;;14.05;12.65;;;7.60;97.20;;;;;;1723287;28;20212;-80
2021/12/06 09:45:10;;;;;;;13.82;12.45;;;7.60;97.20;;;;;;1720690;28;20223;-79
2021/12/06 09:46:01;;;;;;;14.65;12.77;;;7.60;97.20;;;;;;1716306;28;20202;-80
2021/12/06 09:46:53;;;;;;;14.17;12.77;;;7.60;97.20;;;;;;1716343;28;20292;-79
2021/12/06 09:47:50;;;;;;;14.43;12.93;;;7.60;97.20;;;;;;1716379;28;20464;-79
2021/12/06 09:48:44;;;;;;;13.45;12.10;;;7.60;97.20;;;;;;1716515;28;20202;-79
2021/12/06 09:49:35;;;;;;;13.32;12.00;;;7.50;97.20;;;;;;1720725;28;20197;-80
2021/12/06 09:50:32;;;;;;;13.73;12.43;;;7.50;97.20;;;;;;1723350;28;20240;-79
2021/12/06 09:51:26;;;;;;;15.57;12.98;;;7.50;97.20;;;;;;1723383;28;20239;-79
2021/12/06 09:52:18;;;;;;;14.23;12.82;;;7.40;97.20;;;;;;1723213;28;20205;-79
2021/12/06 09:53:11;;;;;;;14.57;13.05;;;7.50;97.20;;;;;;1722954;28;20224;-79
2021/12/06 09:54:06;;;;;;;14.40;12.93;;;7.50;97.20;;;;;;1722839;28;20197;-80
2021/12/06 09:54:58;;;;;;;14.30;12.73;;;7.50;97.20;;;;;;1723207;28;20213;-79
2021/12/06 09:55:53;;;;;;;14.60;13.00;;;7.50;97.20;;;;;;1723001;28;20197;-79
2021/12/06 09:56:44;;;;;;;14.57;13.13;;;7.50;97.20;;;;;;1722910;28;20243;-79
2021/12/06 09:57:36;;;;;;;15.55;13.95;;;7.60;97.20;;;;;;1723263;28;20248;-80
2021/12/06 09:58:30;;;;;;;14.02;12.68;;;7.50;97.20;;;;;;1723091;28;20205;-80
2021/12/06 09:59:25;;;;;;;14.43;12.93;;;7.60;97.20;;;;;;1723066;28;20201;-79
2021/12/06 10:00:24;;;;;;;14.15;12.73;;;7.60;97.20;;;;;;1723009;28;20209;-80
2021/12/06 10:01:21;;;;;;;14.32;12.93;;;7.60;97.20;;;;;;1723144;28;20201;-79
2021/12/06 10:02:16;;;;;;;12.68;11.48;;;7.60;97.20;;;;;;1722868;28;20572;-80
2021/12/06 10:03:07;;;;;;;14.80;13.30;;;7.60;97.20;;;;;;1723166;28;20221;-80
2021/12/06 10:03:59;;;;;;;14.38;12.98;;;7.60;97.20;;;;;;1722850;28;20259;-80
2021/12/06 10:04:55;;;;;;;13.52;12.18;;;7.60;97.20;;;;;;1723051;28;20205;-80
2021/12/06 10:05:46;;;;;;;14.52;13.02;;;7.60;97.20;;;;;;1723137;28;20265;-79
2021/12/06 10:06:38;;;;;;;14.00;12.60;;;7.60;97.20;;;;;;1722723;28;20209;-80
2021/12/06 10:07:28;;;;;;;12.70;11.50;;;7.60;97.20;;;;;;1723022;28;20239;-81
2021/12/06 10:08:21;;;;;;;13.43;12.03;;;7.60;97.20;;;;;;1723312;28;20204;-80
2021/12/06 10:09:16;;;;;;;13.93;12.52;;;7.60;97.20;;;;;;1722851;28;20456;-79
2021/12/06 10:10:11;;;;;;;12.80;11.60;;;7.60;97.20;;;;;;1723535;28;20216;-80
2021/12/06 10:11:04;;;;;;;12.00;10.90;;;7.60;97.20;;;;;;1722698;28;20205;-79
2021/12/06 10:11:57;;;;;;;11.25;10.10;;;7.60;97.20;;;;;;1723164;28;20213;-80
2021/12/06 10:12:52;;;;;;;11.40;10.30;;;7.60;97.20;;;;;;1722428;28;20228;-79
2021/12/06 10:13:48;;;;;;;11.18;10.10;;;7.70;97.20;;;;;;1722966;28;20579;-79
2021/12/06 10:14:42;;;;;;;10.32;9.27;;;7.70;97.20;;;;;;1723065;28;20208;-80
2021/12/06 10:15:34;;;;;;;10.23;9.15;;;7.70;97.20;;;;;;1723025;28;20553;-80
2021/12/06 10:16:25;;;;;;;17.50;11.00;;;7.70;97.20;;;;;;1722886;28;20200;-80
2021/12/06 10:17:19;;;;;;;10.38;9.40;;;7.70;97.20;;;;;;1723071;28;20581;-79
2021/12/06 10:18:10;;;;;;;11.73;10.32;;;7.70;97.20;;;;;;1722901;28;20225;-79
2021/12/06 10:19:02;;;;;;;10.90;9.90;;;7.70;97.20;;;;;;1723421;28;20280;-79
2021/12/06 10:19:53;;;;;;;11.00;10.00;;;7.70;97.20;;;;;;1723005;28;20447;-79
2021/12/06 10:20:45;;;;;;;10.73;9.63;;;7.70;97.20;;;;;;1723012;28;20201;-79
2021/12/06 10:21:38;;;;;;;10.77;9.68;;;7.70;97.20;;;;;;1722463;28;20207;-80
2021/12/06 10:22:30;;;;;;;11.65;10.48;;;7.60;97.20;;;;;;1723175;28;20197;-79
2021/12/06 10:23:21;;;;;;;12.35;11.10;;;7.60;97.20;;;;;;1723163;28;20276;-79
2021/12/06 10:24:16;;;;;;;12.18;10.55;;;7.70;97.20;;;;;;1722739;28;20202;-80
2021/12/06 10:25:08;;;;;;;11.63;10.43;;;7.70;97.20;;;;;;1723206;28;20216;-79
2021/12/06 10:26:00;;;;;;;11.00;9.88;;;7.70;97.20;;;;;;1723063;28;20225;-79
2021/12/06 10:27:03;;;;;;;11.18;10.07;;;7.70;97.20;;;;;;1723131;28;20209;-80
2021/12/06 10:27:55;;;;;;;12.45;10.90;;;7.70;97.20;;;;;;1722896;28;20569;-79
2021/12/06 10:28:47;;;;;;;12.00;10.80;;;7.70;97.20;;;;;;1724255;28;20280;-79
2021/12/06 10:29:44;;;;;;;12.60;11.30;;;7.70;97.20;;;;;;1724367;28;20202;-78